Time;durP1;ratioP1;P1;durP2;ratioP2;P2;SDS_P1;SDS_P2;PMS_P1;PMS_P2;Temp;Humidity;BMP_temperature;BMP_pressure;BME280_temperature;BME280_humidity;BME280_pressure;Samples;Min_cycle;Max_cycle;Signal;HPM_P1;HPM_P2
2023/12/25 00:01:09;;;;;;;;;38.00;34.00;;;;;8.50;100.00;98758.88;6309226;20;2858699;-42
2023/12/25 00:03:39;;;;;;;;;43.00;35.00;;;;;8.54;100.00;98755.03;6278839;20;2864007;-42
2023/12/25 00:06:19;;;;;;;;;45.67;35.00;;;;;8.66;100.00;98763.19;6310671;20;3626417;-43
2023/12/25 00:08:51;;;;;;;;;35.67;31.33;;;;;8.70;100.00;98756.66;6309962;20;2858665;-43
2023/12/25 00:11:21;;;;;;;;;36.00;33.33;;;;;8.52;100.00;98767.66;6315599;20;3591942;-41
2023/12/25 00:13:54;;;;;;;;;36.67;34.67;;;;;8.66;100.00;98758.72;6275807;20;2865992;-42
2023/12/25 00:16:26;;;;;;;;;39.00;33.67;;;;;8.64;100.00;98755.28;6313799;20;3606520;-42
2023/12/25 00:18:58;;;;;;;;;37.00;33.67;;;;;8.65;100.00;98748.94;6276629;20;3609662;-42
2023/12/25 00:21:27;;;;;;;;;43.00;36.33;;;;;8.60;100.00;98737.72;6313318;20;3586773;-42
2023/12/25 00:23:56;;;;;;;;;38.50;34.00;;;;;8.72;100.00;98728.84;6277101;20;2858659;-44
2023/12/25 00:26:26;;;;;;;;;47.67;36.00;;;;;8.59;100.00;98719.94;6279720;20;2863813;-43
2023/12/25 00:28:56;;;;;;;;;42.67;35.67;;;;;8.62;100.00;98740.28;6311227;20;3613871;-43
2023/12/25 00:31:24;;;;;;;;;40.00;34.67;;;;;8.80;100.00;98736.34;6311138;20;3594013;-42
2023/12/25 00:33:53;;;;;;;;;44.00;38.00;;;;;8.67;100.00;98733.66;6274149;20;2841039;-42
2023/12/25 00:36:22;;;;;;;;;32.33;31.33;;;;;8.59;100.00;98725.31;6277445;20;3587851;-42
2023/12/25 00:38:51;;;;;;;;;29.00;26.00;;;;;8.40;100.00;98728.38;6276322;20;2734732;-42
2023/12/25 00:41:20;;;;;;;;;45.00;35.67;;;;;8.55;100.00;98743.38;6309905;20;3622142;-42
2023/12/25 00:43:49;;;;;;;;;38.33;34.00;;;;;8.25;100.00;98732.06;6277757;20;2858731;-42
2023/12/25 00:46:19;;;;;;;;;48.00;36.67;;;;;8.51;100.00;98741.03;6308658;20;3621088;-41
2023/12/25 00:48:49;;;;;;;;;41.33;34.67;;;;;8.53;100.00;98748.00;6309283;20;2854505;-42
2023/12/25 00:51:23;;;;;;;;;47.00;35.00;;;;;8.52;100.00;98754.28;6308743;20;2873326;-42
2023/12/25 00:53:54;;;;;;;;;41.00;37.00;;;;;8.47;100.00;98753.72;6305688;20;2862870;-42
2023/12/25 00:56:23;;;;;;;;;41.50;36.00;;;;;8.48;100.00;98752.78;6307154;20;2845073;-44
2023/12/25 00:58:52;;;;;;;;;45.33;35.33;;;;;8.18;100.00;98753.00;6280789;20;3621123;-43
2023/12/25 01:01:21;;;;;;;;;45.33;35.33;;;;;8.23;100.00;98747.34;6310520;20;3611742;-42
2023/12/25 01:03:50;;;;;;;;;45.00;38.00;;;;;8.43;100.00;98752.25;6279394;20;2856077;-43
2023/12/25 01:06:20;;;;;;;;;47.33;35.33;;;;;8.30;100.00;98752.19;6276751;20;2869023;-43
2023/12/25 01:08:48;;;;;;;;;38.50;35.00;;;;;8.43;100.00;98754.94;6308209;20;2856535;-42
2023/12/25 01:11:17;;;;;;;;;40.00;34.00;;;;;8.41;100.00;98753.31;6281236;20;3614937;-42
2023/12/25 01:13:47;;;;;;;;;40.67;36.00;;;;;8.29;100.00;98754.94;6277710;20;2865048;-42
2023/12/25 01:16:16;;;;;;;;;43.33;33.67;;;;;8.29;100.00;98758.50;6307454;20;3623205;-41
2023/12/25 01:18:46;;;;;;;;;41.33;35.67;;;;;8.45;100.00;98755.69;6307351;20;2855655;-42
2023/12/25 01:21:15;;;;;;;;;45.00;37.50;;;;;8.31;100.00;98753.88;6307129;20;2844039;-41
2023/12/25 01:23:44;;;;;;;;;44.67;35.33;;;;;8.29;100.00;98744.25;6274718;20;2862833;-41
2023/12/25 01:26:13;;;;;;;;;44.33;35.33;;;;;8.14;100.00;98763.03;6309750;20;3586732;-41
2023/12/25 01:28:43;;;;;;;;;36.67;33.33;;;;;8.49;100.00;98761.66;6273925;20;2865137;-41
2023/12/25 01:31:12;;;;;;;;;37.00;33.33;;;;;8.53;100.00;98742.63;6312046;20;3596083;-42
2023/12/25 01:33:40;;;;;;;;;47.00;37.00;;;;;8.26;100.00;98758.69;6274200;20;2866963;-42
2023/12/25 01:36:09;;;;;;;;;41.50;35.50;;;;;8.25;100.00;98764.16;6275908;20;2854454;-42
2023/12/25 01:38:38;;;;;;;;;40.67;36.00;;;;;8.20;100.00;98755.56;6277487;20;3602586;-41
2023/12/25 01:41:08;;;;;;;;;38.67;34.67;;;;;8.13;100.00;98764.00;6272570;20;2861829;-43
2023/12/25 01:43:46;;;;;;;;;37.00;35.00;;;;;8.15;100.00;98763.91;6305898;20;2858757;-41
2023/12/25 01:46:16;;;;;;;;;40.67;34.00;;;;;7.94;100.00;98758.16;6275703;20;2876395;-42
2023/12/25 01:48:51;;;;;;;;;37.33;33.00;;;;;8.03;100.00;98754.88;6308306;20;3606540;-41
2023/12/25 01:51:23;;;;;;;;;38.50;35.00;;;;;8.09;100.00;98773.19;6272547;20;2846076;-41
2023/12/25 01:53:53;;;;;;;;;47.33;38.00;;;;;8.06;100.00;98754.69;6274751;20;3607661;-41
2023/12/25 01:56:22;;;;;;;;;40.50;35.50;;;;;8.04;100.00;98755.75;6277659;20;2856626;-41
2023/12/25 01:58:50;;;;;;;;;48.00;38.50;;;;;7.99;100.00;98744.50;6276130;20;2857534;-42
2023/12/25 02:01:20;;;;;;;;;41.00;34.67;;;;;7.96;100.00;98753.56;6275765;20;2860258;-41
2023/12/25 02:03:49;;;;;;;;;37.00;34.33;;;;;7.94;100.00;98754.63;6309347;20;3600385;-41
2023/12/25 02:06:19;;;;;;;;;47.00;38.00;;;;;8.06;100.00;98759.19;6279736;20;2862813;-41
2023/12/25 02:08:49;;;;;;;;;40.33;36.00;;;;;7.83;100.00;98755.34;6310882;20;2856673;-41
2023/12/25 02:11:18;;;;;;;;;48.50;41.00;;;;;7.92;100.00;98754.72;6313186;20;2860817;-41
2023/12/25 02:13:46;;;;;;;;;46.00;38.00;;;;;7.83;100.00;98763.34;6277345;20;2489989;-41
2023/12/25 02:16:14;;;;;;;;;29.00;22.00;;;;;7.90;100.00;98759.34;6280993;20;2832673;-41
2023/12/25 02:18:43;;;;;;;;;45.00;36.50;;;;;7.92;100.00;98752.03;6278848;20;2850431;-42
2023/12/25 02:21:12;;;;;;;;;46.50;39.00;;;;;7.82;100.00;98726.88;6280406;20;2857574;-41
2023/12/25 02:23:44;;;;;;;;;51.67;41.00;;;;;7.88;100.00;98718.47;6278877;20;2871244;-40
2023/12/25 02:26:14;;;;;;;;;50.50;39.50;;;;;7.84;100.00;98727.66;6311216;20;2856023;-41
2023/12/25 02:28:43;;;;;;;;;53.00;41.00;;;;;7.93;100.00;98726.19;6280134;20;2862830;-41
2023/12/25 02:31:12;;;;;;;;;49.67;38.33;;;;;8.08;100.00;98728.72;6279753;20;2852373;-41
2023/12/25 02:33:41;;;;;;;;;50.50;40.00;;;;;8.03;100.00;98733.50;6309860;20;2851426;-50
2023/12/25 02:36:10;;;;;;;;;53.00;44.00;;;;;8.06;100.00;98732.44;6280977;20;2848275;-40
2023/12/25 02:38:39;;;;;;;;;50.00;39.50;;;;;8.00;100.00;98733.69;6279237;20;2854506;-40
2023/12/25 02:41:08;;;;;;;;;51.50;42.50;;;;;8.00;100.00;98727.47;6281514;20;2849308;-41
2023/12/25 02:43:36;;;;;;;;;46.00;40.00;;;;;8.06;100.00;98727.94;6280250;20;2857713;-41
2023/12/25 02:46:05;;;;;;;;;49.50;41.00;;;;;8.14;100.00;98730.97;6279842;20;2858584;-41
2023/12/25 02:48:35;;;;;;;;;49.33;39.33;;;;;8.03;100.00;98733.50;6281014;20;2870113;-43
2023/12/25 02:51:04;;;;;;;;;50.50;40.00;;;;;7.86;100.00;98726.59;6311326;20;2854604;-42
2023/12/25 02:53:32;;;;;;;;;46.50;39.00;;;;;7.95;100.00;98741.16;6277238;20;2845053;-41
2023/12/25 02:56:02;;;;;;;;;49.00;38.67;;;;;8.01;100.00;98740.75;6280174;20;3613877;-42
2023/12/25 02:58:32;;;;;;;;;47.00;37.67;;;;;8.08;100.00;98752.78;6312069;20;2864000;-41
2023/12/25 03:01:02;;;;;;;;;45.33;38.00;;;;;8.10;100.00;98760.66;6311385;20;2875371;-41
2023/12/25 03:03:30;;;;;;;;;50.00;40.00;;;;;7.98;100.00;98765.03;6312299;20;2851718;-41
2023/12/25 03:06:00;;;;;;;;;54.00;43.50;;;;;7.77;100.00;98777.97;6281742;20;2861757;-41
2023/12/25 03:08:29;;;;;;;;;51.00;42.00;;;;;7.62;100.00;98790.50;6281535;20;2863860;-42
2023/12/25 03:10:59;;;;;;;;;49.50;40.50;;;;;7.61;100.00;98785.22;6311127;20;2845132;-40
2023/12/25 03:13:28;;;;;;;;;49.00;41.00;;;;;7.57;100.00;98775.72;6280510;20;2854468;-41
2023/12/25 03:15:57;;;;;;;;;49.00;39.00;;;;;7.54;100.00;98774.09;6280323;20;3623193;-41
2023/12/25 03:18:26;;;;;;;;;53.00;43.00;;;;;7.66;100.00;98762.63;6307969;20;2847177;-42
2023/12/25 03:20:55;;;;;;;;;48.50;39.50;;;;;7.76;100.00;98762.88;6282584;20;2854404;-41
2023/12/25 03:23:25;;;;;;;;;48.00;37.50;;;;;7.95;100.00;98767.88;6280259;20;2865071;-42
2023/12/25 03:25:56;;;;;;;;;43.67;36.33;;;;;8.27;100.00;98778.28;6306480;20;2866946;-40
2023/12/25 03:28:26;;;;;;;;;33.00;33.00;;;;;8.43;100.00;98786.16;6310870;20;3579427;-42
2023/12/25 03:30:55;;;;;;;;;31.67;27.67;;;;;8.63;100.00;98784.81;6316253;20;3604484;-43
2023/12/25 03:33:25;;;;;;;;;39.00;34.33;;;;;8.61;100.00;98781.38;6280293;20;2861997;-41
2023/12/25 03:35:55;;;;;;;;;38.00;31.67;;;;;8.52;100.00;98772.16;6309369;20;2863155;-41
2023/12/25 03:38:24;;;;;;;;;38.00;31.00;;;;;8.42;100.00;98771.91;6313713;20;3610702;-41
2023/12/25 03:40:52;;;;;;;;;40.00;35.00;;;;;8.45;100.00;98776.19;6280324;20;2865917;-40
2023/12/25 03:43:23;;;;;;;;;34.67;31.00;;;;;8.52;100.00;98770.34;6277702;20;2852380;-41
2023/12/25 03:45:52;;;;;;;;;37.67;31.67;;;;;8.53;100.00;98764.03;6315575;20;3603417;-41
2023/12/25 03:48:21;;;;;;;;;33.50;30.50;;;;;8.61;100.00;98776.00;6280668;20;2848306;-42
2023/12/25 03:50:51;;;;;;;;;37.00;32.00;;;;;8.59;100.00;98776.13;6276599;20;2854450;-42
2023/12/25 03:53:20;;;;;;;;;34.33;33.00;;;;;8.57;100.00;98776.22;6309579;20;3600434;-41
2023/12/25 03:55:49;;;;;;;;;41.00;33.67;;;;;8.50;100.00;98782.94;6276093;20;2876065;-43
2023/12/25 03:58:19;;;;;;;;;42.00;34.00;;;;;8.42;100.00;98769.25;6309872;20;3605510;-41
2023/12/25 04:00:48;;;;;;;;;46.67;33.67;;;;;8.23;100.00;98764.25;6313090;20;3637791;-42
2023/12/25 04:03:16;;;;;;;;;35.00;32.67;;;;;8.42;100.00;98773.72;6282244;20;3599249;-41
2023/12/25 04:05:45;;;;;;;;;33.50;31.00;;;;;8.33;100.00;98773.38;6277409;20;2842973;-42
2023/12/25 04:08:15;;;;;;;;;36.33;31.33;;;;;8.51;100.00;98776.66;6279474;20;2852373;-41
2023/12/25 04:10:44;;;;;;;;;36.33;31.33;;;;;8.39;100.00;98779.25;6313430;20;3596156;-41
2023/12/25 04:13:13;;;;;;;;;37.67;33.67;;;;;8.57;100.00;98780.72;6279981;20;2866003;-40
2023/12/25 04:15:43;;;;;;;;;27.67;25.33;;;;;8.79;100.00;98780.09;6304970;20;3598180;-41
2023/12/25 04:18:12;;;;;;;;;29.00;25.33;;;;;8.75;100.00;98767.91;6313516;20;3598173;-41
2023/12/25 04:20:41;;;;;;;;;22.50;22.50;;;;;8.85;100.00;98782.38;6278581;20;2843997;-40
2023/12/25 04:23:09;;;;;;;;;21.00;19.00;;;;;8.79;100.00;98758.69;6277670;20;2830513;-40
2023/12/25 04:25:37;;;;;;;;;20.50;19.00;;;;;9.08;100.00;98761.16;6271097;20;2500331;-40
2023/12/25 04:28:06;;;;;;;;;13.50;13.50;;;;;9.19;100.00;98766.66;6279107;20;2800268;-40
2023/12/25 04:30:34;;;;;;;;;21.00;19.00;;;;;9.41;100.00;98764.13;6309389;20;2836745;-40
2023/12/25 04:33:03;;;;;;;;;23.00;19.00;;;;;10.18;100.00;98771.06;6280503;20;2837903;-41
2023/12/25 04:35:31;;;;;;;;;11.00;10.00;;;;;9.93;100.00;98769.38;6281041;20;2776321;-40
2023/12/25 04:38:01;;;;;;;;;7.60;7.60;;;;;10.08;100.00;98765.53;6306254;20;2730599;-40
2023/12/25 04:40:31;;;;;;;;;23.50;19.00;;;;;10.20;100.00;98767.31;6309996;20;2837830;-40
2023/12/25 04:42:58;;;;;;;;;10.00;10.00;;;;;10.11;100.00;98768.00;6278634;20;2788856;-40
2023/12/25 04:45:26;;;;;;;;;23.00;18.00;;;;;10.42;100.00;98760.34;6276916;20;2839866;-41
2023/12/25 04:47:56;;;;;;;;;61.00;48.67;;;;;10.94;100.00;98748.28;6277539;20;3621114;-40
2023/12/25 04:50:24;;;;;;;;;29.00;29.00;;;;;11.10;100.00;98742.56;6307900;20;2500321;-40
2023/12/25 04:52:54;;;;;;;;;29.00;25.67;;;;;11.12;100.00;98751.38;6278434;20;2852446;-40
2023/12/25 04:55:23;;;;;;;;;32.00;28.00;;;;;11.14;100.00;98734.16;6306783;20;3616980;-38
2023/12/25 04:57:52;;;;;;;;;38.00;33.00;;;;;11.41;100.00;98730.22;6307927;20;3600515;-40
2023/12/25 05:00:22;;;;;;;;;37.33;31.67;;;;;11.40;100.00;98728.50;6277790;20;3597376;-39
2023/12/25 05:02:51;;;;;;;;;7.50;6.50;;;;;11.44;100.00;98735.34;6310848;20;2741984;-42
2023/12/25 05:05:20;;;;;;;;;44.50;37.00;;;;;11.49;100.00;98738.53;6275006;20;2841053;-40
2023/12/25 05:07:49;;;;;;;;;27.00;21.00;;;;;11.42;100.00;98721.19;6278803;20;2845490;-40
2023/12/25 05:10:17;;;;;;;;;8.50;8.50;;;;;11.54;100.00;98730.94;6282024;20;2752374;-39
2023/12/25 05:12:46;;;;;;;;;12.00;10.67;;;;;11.47;100.00;98728.88;6276667;20;3523199;-40
2023/12/25 05:15:13;;;;;;;;;6.50;6.50;;;;;11.55;100.00;98729.97;6312560;20;2732006;-40
2023/12/25 05:17:41;;;;;;;;;4.00;3.50;;;;;11.67;100.00;98725.44;6280916;20;2746355;-40
2023/12/25 05:20:10;;;;;;;;;7.00;4.00;;;;;11.71;100.00;98732.25;6281217;20;2752483;-41
2023/12/25 05:22:38;;;;;;;;;3.00;3.00;;;;;11.72;100.00;98728.59;6281265;20;2747184;-40
2023/12/25 05:25:06;;;;;;;;;4.00;2.00;;;;;11.83;100.00;98735.78;6279253;20;2743655;-41
2023/12/25 05:27:34;;;;;;;;;4.00;2.00;;;;;11.77;100.00;98730.91;6281936;20;2756527;-40
2023/12/25 05:30:02;;;;;;;;;3.00;3.00;;;;;11.77;100.00;98741.66;6280687;20;2735672;-40
2023/12/25 05:32:30;;;;;;;;;1.00;1.00;;;;;11.77;100.00;98744.34;6281791;20;2726329;-40
2023/12/25 05:34:58;;;;;;;;;3.00;3.00;;;;;11.69;100.00;98742.31;6279685;20;2735695;-40
2023/12/25 05:37:26;;;;;;;;;3.00;2.00;;;;;11.63;100.00;98738.25;6280592;20;2734691;-43
2023/12/25 05:39:55;;;;;;;;;2.00;2.00;;;;;11.67;100.00;98762.22;6280843;20;2744025;-42
2023/12/25 05:42:23;;;;;;;;;2.00;2.00;;;;;11.50;100.00;98760.88;6285345;20;2743083;-43
2023/12/25 05:44:50;;;;;;;;;5.00;4.00;;;;;11.38;100.00;98773.50;6284572;20;2742472;-40
2023/12/25 05:47:18;;;;;;;;;1.00;1.00;;;;;11.24;100.00;98774.56;6287252;20;2735725;-41
2023/12/25 05:49:46;;;;;;;;;3.00;3.00;;;;;11.13;100.00;98767.34;6286556;20;2735846;-40
2023/12/25 05:52:14;;;;;;;;;3.00;3.00;;;;;10.98;100.00;98765.88;6285595;20;2735795;-41
2023/12/25 05:54:42;;;;;;;;;3.50;3.50;;;;;10.98;100.00;98772.13;6284613;20;2744075;-39
2023/12/25 05:57:11;;;;;;;;;4.50;4.50;;;;;11.11;100.00;98774.69;6285043;20;2751840;-49
2023/12/25 05:59:38;;;;;;;;;4.50;3.00;;;;;11.12;100.00;98768.34;6288707;20;2746139;-48
2023/12/25 06:02:06;;;;;;;;;3.00;3.00;;;;;11.18;100.00;98770.53;6284224;20;2750299;-48
2023/12/25 06:04:34;;;;;;;;;8.00;4.00;;;;;11.18;100.00;98762.47;6284365;20;2749316;-48
2023/12/25 06:07:02;;;;;;;;;6.00;5.00;;;;;11.14;100.00;98762.84;6286386;20;2742086;-48
2023/12/25 06:09:30;;;;;;;;;6.50;5.00;;;;;11.10;100.00;98781.03;6284088;20;2735731;-48
2023/12/25 06:11:58;;;;;;;;;6.00;6.00;;;;;11.00;100.00;98777.34;6283247;20;2742993;-48
2023/12/25 06:14:26;;;;;;;;;5.00;5.00;;;;;10.91;100.00;98791.50;6283352;20;2735710;-41
2023/12/25 06:16:55;;;;;;;;;6.25;6.25;;;;;10.90;100.00;98784.41;6303231;20;1815031;-41
2023/12/25 06:19:23;;;;;;;;;8.00;7.00;;;;;10.82;100.00;98789.50;6311843;20;2736747;-41
2023/12/25 06:21:52;;;;;;;;;6.00;6.00;;;;;10.75;100.00;98798.06;6287280;20;2742005;-40
2023/12/25 06:24:19;;;;;;;;;13.00;11.00;;;;;10.80;100.00;98810.28;6277879;20;2785082;-40
2023/12/25 06:26:48;;;;;;;;;11.67;11.00;;;;;10.66;100.00;98819.38;6282997;20;3514951;-39
2023/12/25 06:29:18;;;;;;;;;10.40;10.40;;;;;10.90;100.00;98827.38;6337000;20;2786766;-39
2023/12/25 06:31:49;;;;;;;;;8.00;8.00;;;;;10.80;100.00;98824.56;6285515;20;2751442;-39
2023/12/25 06:34:17;;;;;;;;;11.00;10.00;;;;;10.84;100.00;98830.53;6277646;20;2781605;-39
2023/12/25 06:36:44;;;;;;;;;9.00;6.00;;;;;10.93;100.00;98840.59;6285898;20;2748198;-39
2023/12/25 06:39:12;;;;;;;;;7.50;7.50;;;;;10.89;100.00;98839.09;6284124;20;2752391;-40
2023/12/25 06:41:40;;;;;;;;;8.00;8.00;;;;;11.17;100.00;98845.91;6279927;20;2735829;-39
2023/12/25 06:44:08;;;;;;;;;12.00;7.00;;;;;10.93;100.00;98857.56;6282468;20;2751408;-39
2023/12/25 06:46:36;;;;;;;;;4.00;4.00;;;;;11.03;100.00;98860.38;6283688;20;2748202;-42
2023/12/25 06:49:03;;;;;;;;;7.00;6.00;;;;;11.15;100.00;98864.81;6281962;20;2736748;-39
2023/12/25 06:51:34;;;;;;;;;5.00;5.00;;;;;11.16;100.00;98868.34;6284208;20;2748204;-40
2023/12/25 06:54:02;;;;;;;;;8.00;6.00;;;;;11.17;100.00;98865.56;6281455;20;2731531;-39
2023/12/25 06:56:30;;;;;;;;;4.00;4.00;;;;;11.26;100.00;98869.34;6285157;20;2744033;-39
2023/12/25 06:58:58;;;;;;;;;5.50;4.00;;;;;11.19;100.00;98876.19;6283225;20;2749258;-40
2023/12/25 07:01:26;;;;;;;;;5.00;5.00;;;;;11.20;100.00;98872.53;6285220;20;2750277;-40
2023/12/25 07:03:54;;;;;;;;;7.50;5.00;;;;;11.08;100.00;98879.69;6282471;20;2733638;-40
2023/12/25 07:06:22;;;;;;;;;5.00;5.00;;;;;11.11;100.00;98882.16;6282687;20;2745161;-40
2023/12/25 07:08:50;;;;;;;;;6.00;5.00;;;;;11.11;100.00;98884.84;6285047;20;2748357;-41
2023/12/25 07:11:18;;;;;;;;;22.67;21.67;;;;;11.10;100.00;98879.56;6282256;20;3569020;-41
2023/12/25 07:13:47;;;;;;;;;6.50;6.50;;;;;11.01;100.00;98877.59;6282934;20;2743008;-43
2023/12/25 07:16:22;;;;;;;;;12.50;11.00;;;;;11.13;100.00;98888.25;6279963;20;2788924;-40
2023/12/25 07:18:53;;;;;;;;;8.00;5.00;;;;;11.33;100.00;98893.94;6280512;20;2752449;-42
2023/12/25 07:21:21;;;;;;;;;4.00;4.00;;;;;11.39;100.00;98901.50;6282707;20;2748215;-40
2023/12/25 07:23:49;;;;;;;;;6.00;6.00;;;;;11.50;100.00;98898.84;6284340;20;2748201;-40
2023/12/25 07:26:18;;;;;;;;;11.50;9.00;;;;;11.52;100.00;98893.34;6283566;20;2767022;-40
2023/12/25 07:28:49;;;;;;;;;6.14;4.71;;;;;11.70;100.00;98893.75;6323859;20;1796288;-40
2023/12/25 07:31:17;;;;;;;;;6.00;5.00;;;;;11.60;100.00;98901.66;6312882;20;2743034;-41
2023/12/25 07:33:45;;;;;;;;;5.00;5.00;;;;;11.65;100.00;98911.09;6282513;20;2744134;-40
2023/12/25 07:36:13;;;;;;;;;6.00;5.00;;;;;11.58;100.00;98906.31;6284152;20;2745092;-42
2023/12/25 07:38:41;;;;;;;;;7.00;7.00;;;;;11.44;100.00;98907.38;6280703;20;2739866;-41
2023/12/25 07:41:10;;;;;;;;;9.00;8.00;;;;;11.41;100.00;98910.31;6279612;20;2733708;-40
2023/12/25 07:43:39;;;;;;;;;11.00;10.00;;;;;11.25;100.00;98918.72;6280153;20;2786846;-40
2023/12/25 07:46:08;;;;;;;;;9.00;9.00;;;;;11.12;100.00;98923.31;6318782;20;2750308;-42
2023/12/25 07:48:36;;;;;;;;;12.00;10.00;;;;;11.10;100.00;98920.72;6278381;20;2791966;-41
2023/12/25 07:51:05;;;;;;;;;14.50;14.00;;;;;11.11;100.00;98922.44;6282501;20;2808618;-40
2023/12/25 07:53:33;;;;;;;;;15.00;11.33;;;;;11.03;100.00;98924.84;6275267;20;3511737;-40
2023/12/25 07:56:02;;;;;;;;;19.00;14.50;;;;;10.97;100.00;98931.53;6312072;20;2814916;-40
2023/12/25 07:58:30;;;;;;;;;15.33;14.33;;;;;11.01;100.00;98931.34;6279052;20;3539854;-41
2023/12/25 08:00:59;;;;;;;;;25.50;22.00;;;;;10.96;100.00;98939.72;6311323;20;2850423;-41
2023/12/25 08:03:29;;;;;;;;;28.00;28.00;;;;;11.06;100.00;98940.75;6277945;20;3598175;-40
2023/12/25 08:05:57;;;;;;;;;22.00;19.00;;;;;10.61;100.00;98945.91;6312505;20;3575390;-41
2023/12/25 08:08:26;;;;;;;;;25.33;25.33;;;;;10.85;100.00;98942.34;6313595;20;3583589;-41
2023/12/25 08:10:57;;;;;;;;;44.67;31.67;;;;;10.95;100.00;98948.72;6279313;20;3633620;-40
2023/12/25 08:13:27;;;;;;;;;37.33;33.67;;;;;10.71;100.00;98952.28;6279414;20;3598348;-40
2023/12/25 08:15:56;;;;;;;;;37.33;32.33;;;;;10.63;100.00;98940.41;6312019;20;3608580;-42
2023/12/25 08:18:25;;;;;;;;;39.33;31.67;;;;;10.57;100.00;98946.22;6279950;20;2865045;-41
2023/12/25 08:20:54;;;;;;;;;33.00;30.67;;;;;10.40;100.00;98947.44;6314465;20;3583676;-41
2023/12/25 08:23:23;;;;;;;;;34.67;26.33;;;;;10.23;100.00;98946.81;6279522;20;3621138;-41
2023/12/25 08:25:52;;;;;;;;;43.00;33.67;;;;;10.55;100.00;98955.22;6276423;20;2862940;-42
2023/12/25 08:28:21;;;;;;;;;39.67;33.33;;;;;10.32;100.00;98940.84;6313439;20;3607678;-42
2023/12/25 08:30:50;;;;;;;;;27.67;25.33;;;;;10.66;100.00;98949.06;6282805;20;3587784;-41
2023/12/25 08:33:19;;;;;;;;;40.00;34.33;;;;;10.79;100.00;98940.97;6281482;20;3611706;-41
2023/12/25 08:35:48;;;;;;;;;38.00;33.00;;;;;10.73;100.00;98961.09;6309361;20;3600347;-54
2023/12/25 08:38:16;;;;;;;;;21.00;19.00;;;;;10.93;100.00;98956.06;6276365;20;2494033;-49
2023/12/25 08:40:44;;;;;;;;;21.00;20.50;;;;;10.90;100.00;98967.91;6281128;20;2840891;-51
2023/12/25 08:43:14;;;;;;;;;24.67;23.67;;;;;10.68;100.00;98960.56;6280367;20;2844612;-48
2023/12/25 08:45:43;;;;;;;;;27.50;23.50;;;;;10.84;100.00;98954.91;6308299;20;2844179;-53
2023/12/25 08:48:11;;;;;;;;;21.00;19.00;;;;;10.91;100.00;98958.00;6279954;20;2837833;-48
2023/12/25 08:50:41;;;;;;;;;26.67;22.00;;;;;11.04;100.00;98972.25;6278962;20;2843059;-49
2023/12/25 08:53:10;;;;;;;;;27.67;24.67;;;;;11.10;100.00;98965.53;6310408;20;2847154;-51
2023/12/25 08:55:42;;;;;;;;;25.13;22.13;;;;;10.98;100.00;98972.72;6334489;20;3585718;-50
2023/12/25 08:58:10;;;;;;;;;18.50;16.50;;;;;11.16;100.00;98984.75;6278508;20;2833655;-48
2023/12/25 09:00:40;;;;;;;;;25.00;23.33;;;;;11.14;100.00;98991.22;6280069;20;2842038;-47
2023/12/25 09:03:08;;;;;;;;;23.67;22.00;;;;;11.37;99.56;98989.47;6315157;20;3579421;-50
2023/12/25 09:05:37;;;;;;;;;19.50;18.50;;;;;11.38;99.14;99000.09;6277402;20;2835700;-49
2023/12/25 09:08:06;;;;;;;;;28.00;22.00;;;;;11.23;99.78;98993.19;6279049;20;2838818;-53
2023/12/25 09:10:35;;;;;;;;;22.50;22.50;;;;;11.35;99.47;99007.56;6280679;20;2847204;-50
2023/12/25 09:13:05;;;;;;;;;30.33;28.00;;;;;11.62;97.94;99012.66;6276297;20;2858743;-49
2023/12/25 09:15:33;;;;;;;;;22.50;20.00;;;;;11.65;97.47;99018.63;6308249;20;2833763;-50
2023/12/25 09:18:01;;;;;;;;;15.00;15.00;;;;;11.38;99.28;99031.50;6273082;20;2496202;-50
2023/12/25 09:20:31;;;;;;;;;26.00;24.67;;;;;11.10;100.00;99017.44;6285078;20;2844847;-49
2023/12/25 09:23:00;;;;;;;;;32.00;28.00;;;;;10.83;100.00;99011.44;6319456;20;3610679;-52
2023/12/25 09:25:29;;;;;;;;;32.00;28.33;;;;;10.61;100.00;99010.31;6282443;20;3619105;-50
2023/12/25 09:27:58;;;;;;;;;36.67;31.00;;;;;10.27;100.00;99033.31;6285330;20;3587752;-50
2023/12/25 09:30:26;;;;;;;;;30.67;27.00;;;;;10.40;100.00;99015.41;6283476;20;3590955;-52
2023/12/25 09:32:55;;;;;;;;;26.67;26.00;;;;;10.60;100.00;99008.59;6284722;20;3604418;-48
2023/12/25 09:35:25;;;;;;;;;32.00;29.00;;;;;10.50;100.00;98999.47;6284602;20;2835826;-51
2023/12/25 09:37:54;;;;;;;;;65.67;50.00;;;;;10.55;100.00;98998.19;6315276;20;3632590;-51
2023/12/25 09:40:23;;;;;;;;;54.00;43.67;;;;;10.68;100.00;99002.66;6286604;20;3612812;-52
2023/12/25 09:42:53;;;;;;;;;41.33;35.33;;;;;10.70;100.00;98993.53;6284300;20;2860869;-52
2023/12/25 09:45:25;;;;;;;;;25.33;25.33;;;;;10.58;100.00;98985.50;6313435;20;3597149;-53
2023/12/25 09:47:55;;;;;;;;;41.33;34.00;;;;;10.65;100.00;98990.31;6280676;20;3614929;-51
2023/12/25 09:50:24;;;;;;;;;28.67;27.33;;;;;10.67;100.00;98976.81;6317127;20;3584691;-49
2023/12/25 09:52:54;;;;;;;;;41.00;31.33;;;;;10.73;100.00;98974.50;6277463;20;3622178;-51
2023/12/25 09:55:23;;;;;;;;;28.00;27.00;;;;;10.80;100.00;98974.06;6313325;20;3591349;-52
2023/12/25 09:57:53;;;;;;;;;30.00;27.00;;;;;10.91;100.00;98961.56;6284393;20;3595065;-53
2023/12/25 10:00:23;;;;;;;;;32.00;29.00;;;;;10.90;100.00;98972.41;6315972;20;3578451;-54
2023/12/25 10:02:54;;;;;;;;;32.67;28.00;;;;;11.13;100.00;98976.06;6279669;20;3606636;-53
2023/12/25 10:05:23;;;;;;;;;26.50;22.00;;;;;11.12;100.00;98964.44;6308599;20;2831765;-53
2023/12/25 10:07:52;;;;;;;;;26.00;21.00;;;;;11.46;99.25;98948.44;6272099;20;2843154;-53
2023/12/25 10:10:31;;;;;;;;;26.33;24.00;;;;;11.20;98.48;98953.13;6281949;20;2844145;-51
2023/12/25 10:13:04;;;;;;;;;29.67;25.00;;;;;11.30;98.73;98958.66;6314561;20;2860854;-52
2023/12/25 10:15:34;;;;;;;;;23.33;22.33;;;;;11.15;99.46;98977.66;6306332;20;3584759;-49
2023/12/25 10:18:06;;;;;;;;;27.33;24.67;;;;;11.37;98.43;98971.53;6284415;20;3582567;-53
2023/12/25 10:20:35;;;;;;;;;26.33;23.00;;;;;11.50;98.43;98959.81;6283236;20;3589987;-53
2023/12/25 10:23:14;;;;;;;;;33.00;28.00;;;;;11.51;97.38;98973.16;6281751;20;3600308;-54
2023/12/25 10:25:51;;;;;;;;;34.33;31.67;;;;;11.43;99.79;98970.19;6282514;20;3596202;-55
2023/12/25 10:28:21;;;;;;;;;31.00;28.67;;;;;11.27;100.00;98972.31;6282061;20;3610685;-50
2023/12/25 10:31:07;;;;;;;;;35.67;31.00;;;;;11.30;100.00;98977.47;6281385;20;3591954;-53
2023/12/25 10:33:37;;;;;;;;;56.00;40.67;;;;;10.97;100.00;98987.09;6283437;20;3613849;-53
2023/12/25 10:36:11;;;;;;;;;63.75;48.50;;;;;11.08;100.00;98987.13;6315299;20;3631588;-53
2023/12/25 10:38:42;;;;;;;;;31.00;31.00;;;;;11.24;100.00;98980.63;6315132;20;3578397;-54
2023/12/25 10:41:45;;;;;;;;;29.33;28.33;;;;;11.24;100.00;98954.59;6287019;20;3575325;-54
2023/12/25 10:44:14;;;;;;;;;35.33;30.00;;;;;11.38;100.00;98964.31;6266596;20;3590912;-51
2023/12/25 10:46:43;;;;;;;;;36.00;32.33;;;;;11.55;100.00;98969.22;6308603;20;3606542;-53
2023/12/25 10:49:14;;;;;;;;;38.33;32.33;;;;;11.67;100.00;98974.66;6279056;20;2863905;-53
2023/12/25 10:51:49;;;;;;;;;28.67;28.33;;;;;11.88;98.98;98980.22;6314612;20;3582741;-50
2023/12/25 10:54:20;;;;;;;;;29.67;28.00;;;;;11.52;100.00;98953.34;6274115;20;3610718;-51
2023/12/25 10:56:50;;;;;;;;;49.00;39.00;;;;;11.62;98.13;98967.78;6311690;20;2858815;-55
2023/12/25 10:59:35;;;;;;;;;36.33;31.33;;;;;11.66;99.32;98944.19;6315141;20;3598194;-54
2023/12/25 11:02:09;;;;;;;;;39.33;30.33;;;;;11.59;99.76;98964.50;6285401;20;3619074;-55
2023/12/25 11:04:40;;;;;;;;;59.00;44.67;;;;;11.75;99.09;98975.75;6279456;20;3630464;-54
2023/12/25 11:07:12;;;;;;;;;39.67;32.33;;;;;11.58;98.49;98979.75;6308259;20;2866967;-53
2023/12/25 11:09:42;;;;;;;;;48.33;41.33;;;;;11.95;98.64;98979.59;6314076;20;3607642;-55
2023/12/25 11:12:11;;;;;;;;;42.00;34.33;;;;;11.60;100.00;98956.28;6311517;20;3604439;-51